createdAt,value
2022-11-21T00:00:09.322Z,4.68
2022-11-21T00:05:11.041Z,4.85
2022-11-21T00:10:13.251Z,4.90
2022-11-21T00:15:14.870Z,3.72
2022-11-21T00:20:17.780Z,4.20
2022-11-21T00:25:19.605Z,5.10
2022-11-21T00:30:21.531Z,3.95
2022-11-21T00:35:23.090Z,4.10
2022-11-21T00:40:24.711Z,3.45
2022-11-21T00:45:26.254Z,3.78
2022-11-21T00:50:27.863Z,3.95
2022-11-21T00:55:29.508Z,4.22
2022-11-21T01:00:31.137Z,4.93
2022-11-21T01:05:33.278Z,3.22
2022-11-21T01:10:35.981Z,3.67
2022-11-21T01:15:37.739Z,3.42
2022-11-21T01:20:40.054Z,3.95
2022-11-21T01:25:43.746Z,3.03
2022-11-21T01:30:45.374Z,3.47
2022-11-21T01:35:46.989Z,3.35
2022-11-21T01:40:48.474Z,2.97
2022-11-21T01:45:55.901Z,3.10
2022-11-21T01:51:02.442Z,2.80
2022-11-21T01:56:05.382Z,3.15
2022-11-21T02:01:07.430Z,3.35
2022-11-21T02:06:10.602Z,3.03
2022-11-21T02:11:37.696Z,2.80
2022-11-21T02:16:39.789Z,2.53
2022-11-21T02:22:02.225Z,3.55
2022-11-21T02:27:03.883Z,2.28
2022-11-21T02:32:05.942Z,2.28
2022-11-21T02:37:09.487Z,2.53
2022-11-21T02:42:28.426Z,2.45
2022-11-21T02:47:31.147Z,2.95
2022-11-21T02:52:32.799Z,2.90
2022-11-21T02:57:34.319Z,3.75
2022-11-21T03:02:36.408Z,2.78
2022-11-21T03:07:38.515Z,2.55
2022-11-21T03:12:42.630Z,2.38
2022-11-21T03:17:48.520Z,2.92
2022-11-21T03:22:50.177Z,2.07
2022-11-21T03:27:52.726Z,2.10
2022-11-21T03:32:57.978Z,2.13
2022-11-21T03:37:59.804Z,1.85
2022-11-21T03:43:05.749Z,2.00
2022-11-21T03:48:07.569Z,2.40
2022-11-21T03:53:11.732Z,2.15
2022-11-21T03:58:13.371Z,2.85
2022-11-21T04:03:15.004Z,1.98
2022-11-21T04:08:16.644Z,2.20
2022-11-21T04:13:18.524Z,2.03
2022-11-21T04:18:20.134Z,2.97
2022-11-21T04:23:21.811Z,2.88
2022-11-21T04:28:23.992Z,3.10
2022-11-21T04:33:25.650Z,4.38
2022-11-21T04:38:27.224Z,4.57
2022-11-21T04:43:28.904Z,4.85
2022-11-21T04:48:30.745Z,6.43
2022-11-21T04:53:32.454Z,4.82
2022-11-21T04:58:34.217Z,5.25
2022-11-21T05:03:36.571Z,4.68
2022-11-21T05:08:38.135Z,5.90
2022-11-21T05:13:39.813Z,4.95
2022-11-21T05:18:41.425Z,5.07
2022-11-21T05:23:43.141Z,5.63
2022-11-21T05:28:44.739Z,6.07
2022-11-21T05:33:46.281Z,6.50
2022-11-21T05:38:47.845Z,7.50
2022-11-21T05:43:49.366Z,8.57
2022-11-21T05:48:52.831Z,9.82
2022-11-21T05:53:54.401Z,10.02
2022-11-21T05:58:56.875Z,8.57
2022-11-21T06:04:01.361Z,9.15
2022-11-21T06:09:04.449Z,8.32
2022-11-21T06:14:06.152Z,10.27
2022-11-21T06:19:07.757Z,8.63
2022-11-21T06:24:09.581Z,7.40
2022-11-21T06:29:11.795Z,7.20
2022-11-21T06:34:13.487Z,6.68
2022-11-21T06:39:15.117Z,6.57
2022-11-21T06:44:19.946Z,6.88
2022-11-21T06:49:21.539Z,7.40
2022-11-21T06:54:23.135Z,7.13
2022-11-21T06:59:24.905Z,7.97
2022-11-21T07:04:26.792Z,8.07
2022-11-21T07:09:33.806Z,6.75
2022-11-21T07:14:35.743Z,6.80
2022-11-21T07:19:40.836Z,7.38
2022-11-21T07:24:42.858Z,8.45
2022-11-21T07:29:44.617Z,8.30
2022-11-21T07:34:46.511Z,8.00
2022-11-21T07:39:48.108Z,7.07
2022-11-21T07:44:49.809Z,6.22
2022-11-21T07:49:51.659Z,4.97
2022-11-21T07:54:53.418Z,5.22
2022-11-21T07:59:55.445Z,5.25
2022-11-21T08:04:57.100Z,5.00
2022-11-21T08:09:59.383Z,6.60
2022-11-21T08:15:01.071Z,6.18
2022-11-21T08:20:02.808Z,5.78
2022-11-21T08:25:04.872Z,5.32
2022-11-21T08:30:08.570Z,5.57
2022-11-21T08:35:10.396Z,5.65
2022-11-21T08:40:12.031Z,7.32
2022-11-21T08:45:13.567Z,6.30
2022-11-21T08:50:15.521Z,5.63
2022-11-21T08:55:17.160Z,4.70
2022-11-21T09:00:19.014Z,4.75
2022-11-21T09:05:20.861Z,5.72
2022-11-21T09:10:22.625Z,5.55
2022-11-21T09:15:24.479Z,5.68
2022-11-21T09:20:26.226Z,4.13
2022-11-21T09:25:27.907Z,4.68
2022-11-21T09:30:29.572Z,5.38
2022-11-21T09:35:31.614Z,3.88
2022-11-21T09:40:35.421Z,3.30
2022-11-21T09:45:48.522Z,2.75
2022-11-21T09:51:02.386Z,2.85
2022-11-21T09:56:13.963Z,2.50
2022-11-21T10:01:17.341Z,1.65
2022-11-21T10:06:21.688Z,1.48
2022-11-21T10:11:49.592Z,2.35
2022-11-21T10:17:09.954Z,3.75
2022-11-21T10:22:20.372Z,2.45
2022-11-21T10:28:08.481Z,1.90
2022-11-21T10:33:20.765Z,1.10
2022-11-21T10:38:25.178Z,2.05
2022-11-21T10:43:38.856Z,1.15
2022-11-21T10:48:41.396Z,1.50
2022-11-21T10:53:43.240Z,1.10
2022-11-21T10:58:46.481Z,0.90
2022-11-21T11:04:26.262Z,1.20
2022-11-21T11:09:33.904Z,1.45
2022-11-21T11:14:35.538Z,1.08
2022-11-21T11:19:40.343Z,0.90
2022-11-21T11:24:55.077Z,1.13
2022-11-21T11:30:07.396Z,2.28
2022-11-21T11:35:12.210Z,4.10
2022-11-21T11:40:30.804Z,1.90
2022-11-21T11:45:53.731Z,1.23
2022-11-21T11:51:07.166Z,1.02
2022-11-21T11:56:16.571Z,0.85
2022-11-21T12:01:39.174Z,0.80
2022-11-21T12:12:21.234Z,1.15
2022-11-21T12:17:32.445Z,1.17
2022-11-21T12:22:34.087Z,0.90
2022-11-21T12:27:35.866Z,0.50
2022-11-21T12:33:07.940Z,0.80
2022-11-21T12:38:19.394Z,1.45
2022-11-21T12:43:44.120Z,1.63
2022-11-21T12:49:02.677Z,0.75
2022-11-21T12:54:38.500Z,1.15
2022-11-21T12:59:58.320Z,0.50
2022-11-21T13:05:03.171Z,1.50
2022-11-21T13:10:11.647Z,0.80
2022-11-21T13:15:19.646Z,1.15
2022-11-21T13:20:51.056Z,1.48
2022-11-21T13:25:52.631Z,0.70
2022-11-21T13:30:55.932Z,1.15
2022-11-21T13:35:57.753Z,0.98
2022-11-21T13:40:59.589Z,1.08
2022-11-21T13:46:01.478Z,0.60
2022-11-21T13:51:34.164Z,0.82
2022-11-21T13:57:00.551Z,0.75
2022-11-21T14:02:08.049Z,1.00
2022-11-21T14:07:24.785Z,0.70
2022-11-21T14:17:55.697Z,0.90
2022-11-21T14:23:18.337Z,0.57
2022-11-21T14:28:27.856Z,0.95
2022-11-21T14:33:31.098Z,1.30
2022-11-21T14:39:29.002Z,1.30
2022-11-21T14:44:21.527Z,0.90
2022-11-21T14:49:25.102Z,0.70
2022-11-21T14:54:30.543Z,1.00
2022-11-21T14:59:35.473Z,1.08
2022-11-21T15:04:37.513Z,1.20
2022-11-21T15:15:07.658Z,1.02
2022-11-21T15:20:12.107Z,1.63
2022-11-21T15:25:13.758Z,1.23
2022-11-21T15:30:15.375Z,0.95
2022-11-21T15:35:32.064Z,1.80
2022-11-21T15:40:33.797Z,1.50
2022-11-21T15:45:35.564Z,1.40
2022-11-21T15:50:37.112Z,2.88
2022-11-21T15:55:38.648Z,1.92
2022-11-21T16:00:40.225Z,1.40
2022-11-21T16:05:42.010Z,1.70
2022-11-21T16:10:43.841Z,1.83
2022-11-21T16:15:45.475Z,2.00
2022-11-21T16:20:48.288Z,1.98
2022-11-21T16:25:54.233Z,2.05
2022-11-21T16:30:58.661Z,2.67
2022-11-21T16:36:00.667Z,3.40
2022-11-21T16:41:03.697Z,2.25
2022-11-21T16:46:08.466Z,1.83
2022-11-21T16:51:12.983Z,2.40
2022-11-21T16:56:15.897Z,3.25
2022-11-21T17:01:23.118Z,2.42
2022-11-21T17:06:28.538Z,1.63
2022-11-21T17:11:31.277Z,1.85
2022-11-21T17:16:34.233Z,2.17
2022-11-21T17:21:36.137Z,1.40
2022-11-21T17:26:37.754Z,2.75
2022-11-21T17:31:39.342Z,1.83
2022-11-21T17:36:41.028Z,1.60
2022-11-21T17:41:42.670Z,1.92
2022-11-21T17:46:44.236Z,2.45
2022-11-21T17:51:46.191Z,1.85
2022-11-21T17:56:52.644Z,2.72
2022-11-21T18:01:58.183Z,1.88
2022-11-21T18:06:59.931Z,2.17
2022-11-21T18:12:01.605Z,2.30
2022-11-21T18:17:03.370Z,2.13
2022-11-21T18:22:05.375Z,2.33
2022-11-21T18:27:07.224Z,2.28
2022-11-21T18:32:08.800Z,2.60
2022-11-21T18:37:10.433Z,2.55
2022-11-21T18:42:12.072Z,2.38
2022-11-21T18:47:20.493Z,3.15
2022-11-21T18:52:22.984Z,2.63
2022-11-21T18:57:25.017Z,2.15
2022-11-21T19:02:26.667Z,3.47
2022-11-21T19:07:28.422Z,2.30
2022-11-21T19:12:33.813Z,2.78
2022-11-21T19:17:37.894Z,2.60
2022-11-21T19:22:39.630Z,2.33
2022-11-21T19:27:41.635Z,2.97
2022-11-21T19:32:43.382Z,2.60
2022-11-21T19:37:46.241Z,2.30
2022-11-21T19:42:47.880Z,2.70
2022-11-21T19:47:49.411Z,2.22
2022-11-21T19:52:51.004Z,2.28
2022-11-21T19:57:52.537Z,2.33
2022-11-21T20:02:54.091Z,3.28
2022-11-21T20:08:01.696Z,3.10
2022-11-21T20:13:05.760Z,2.88
2022-11-21T20:18:07.316Z,3.65
2022-11-21T20:23:08.954Z,2.97
2022-11-21T20:28:11.879Z,2.53
2022-11-21T20:33:13.572Z,2.60
2022-11-21T20:38:17.890Z,3.38
2022-11-21T20:43:23.233Z,2.13
2022-11-21T20:48:24.861Z,2.75
2022-11-21T20:58:49.603Z,2.75
2022-11-21T21:03:51.198Z,2.75
2022-11-21T21:08:52.889Z,2.65
2022-11-21T21:13:54.487Z,2.78
2022-11-21T21:18:56.622Z,2.58
2022-11-21T21:24:04.291Z,2.55
2022-11-21T21:29:05.951Z,2.50
2022-11-21T21:34:09.161Z,2.22
2022-11-21T21:39:10.973Z,2.20
2022-11-21T21:44:12.722Z,1.80
2022-11-21T21:49:14.498Z,1.90
2022-11-21T21:54:18.846Z,1.58
2022-11-21T21:59:20.464Z,2.65
2022-11-21T22:04:22.030Z,1.67
2022-11-21T22:09:23.637Z,3.20
2022-11-21T22:14:25.298Z,1.75
2022-11-21T22:19:27.092Z,1.65
2022-11-21T22:24:29.029Z,1.92
2022-11-21T22:29:30.702Z,1.85
2022-11-21T22:34:32.573Z,1.70
2022-11-21T22:39:34.508Z,1.73
2022-11-21T22:44:36.047Z,2.22
2022-11-21T22:49:37.604Z,1.58
2022-11-21T22:54:39.085Z,1.33
2022-11-21T22:59:40.617Z,1.75
2022-11-21T23:04:42.258Z,1.40
2022-11-21T23:09:43.931Z,1.30
2022-11-21T23:14:45.553Z,1.40
2022-11-21T23:19:47.118Z,1.35
2022-11-21T23:24:48.664Z,1.48
2022-11-21T23:29:50.218Z,1.88
2022-11-21T23:34:51.994Z,1.92
2022-11-21T23:39:53.542Z,1.80
2022-11-21T23:44:55.634Z,1.63
2022-11-21T23:49:57.264Z,2.22
2022-11-21T23:54:58.811Z,2.55
